createdAt,value
2019-01-08T00:01:35.506Z,1.87
2019-01-08T00:04:24.011Z,1.70
2019-01-08T00:07:12.613Z,2.07
2019-01-08T00:10:01.148Z,2.07
2019-01-08T00:12:49.772Z,1.40
2019-01-08T00:15:38.482Z,1.80
2019-01-08T00:18:26.644Z,2.00
2019-01-08T00:21:14.900Z,2.40
2019-01-08T00:27:18.179Z,2.30
2019-01-08T00:30:08.058Z,2.70
2019-01-08T00:32:56.397Z,2.10
2019-01-08T00:35:44.685Z,2.73
2019-01-08T00:38:33.508Z,2.10
2019-01-08T00:41:22.145Z,2.80
2019-01-08T00:44:10.631Z,2.23
2019-01-08T00:46:59.743Z,1.70
2019-01-08T00:49:48.111Z,2.30
2019-01-08T00:52:37.113Z,1.73
2019-01-08T00:55:25.603Z,2.10
2019-01-08T00:58:13.880Z,2.03
2019-01-08T01:01:02.211Z,2.40
2019-01-08T01:03:50.465Z,1.23
2019-01-08T01:06:38.565Z,1.70
2019-01-08T01:09:27.094Z,1.53
2019-01-08T01:12:15.317Z,2.13
2019-01-08T01:15:04.359Z,1.90
2019-01-08T01:17:53.455Z,2.07
2019-01-08T01:20:41.766Z,2.13
2019-01-08T01:23:29.877Z,2.07
2019-01-08T01:26:18.297Z,1.97
2019-01-08T01:29:07.037Z,2.00
2019-01-08T01:31:55.411Z,1.70
2019-01-08T01:34:43.617Z,2.60
2019-01-08T01:37:31.795Z,2.13
2019-01-08T01:40:20.406Z,2.00
2019-01-08T01:43:09.064Z,1.40
2019-01-08T01:45:57.182Z,2.10
2019-01-08T01:48:45.824Z,1.93
2019-01-08T01:51:34.232Z,1.40
2019-01-08T01:54:09.746Z,1.97
2019-01-08T01:56:58.110Z,2.13
2019-01-08T01:59:46.932Z,2.17
2019-01-08T02:02:35.468Z,1.83
2019-01-08T02:05:23.956Z,2.10
2019-01-08T02:08:12.161Z,2.03
2019-01-08T02:11:00.255Z,1.90
2019-01-08T02:13:48.441Z,1.87
2019-01-08T02:24:20.536Z,1.83
2019-01-08T02:27:08.860Z,2.40
2019-01-08T02:29:57.384Z,2.00
2019-01-08T02:32:45.848Z,2.33
2019-01-08T02:35:34.159Z,1.37
2019-01-08T02:46:36.573Z,2.00
2019-01-08T02:49:25.399Z,2.90
2019-01-08T02:52:13.445Z,2.50
2019-01-08T02:55:01.801Z,2.60
2019-01-08T02:57:50.050Z,2.10
2019-01-08T03:00:38.197Z,1.73
2019-01-08T03:03:26.366Z,2.00
2019-01-08T03:06:14.955Z,2.50
2019-01-08T03:09:03.760Z,1.80
2019-01-08T03:11:52.205Z,1.53
2019-01-08T03:14:40.308Z,1.90
2019-01-08T03:17:28.979Z,1.77
2019-01-08T03:20:17.546Z,1.90
2019-01-08T03:23:05.687Z,2.17
2019-01-08T03:25:54.089Z,2.30
2019-01-08T03:28:42.377Z,2.47
2019-01-08T03:31:30.761Z,1.57
2019-01-08T03:34:19.410Z,2.10
2019-01-08T03:37:07.899Z,2.80
2019-01-08T03:39:56.359Z,2.40
2019-01-08T03:42:44.715Z,2.50
2019-01-08T03:45:32.980Z,2.60
2019-01-08T03:48:17.534Z,3.17
2019-01-08T03:51:05.997Z,2.10
2019-01-08T03:53:54.220Z,2.20
2019-01-08T03:56:42.623Z,2.70
2019-01-08T03:59:31.103Z,2.10
2019-01-08T04:02:19.319Z,2.17
2019-01-08T04:05:07.437Z,2.07
2019-01-08T04:07:55.950Z,2.10
2019-01-08T04:10:44.321Z,2.10
2019-01-08T04:13:32.282Z,2.40
2019-01-08T04:16:20.567Z,2.77
2019-01-08T04:19:08.779Z,2.00
2019-01-08T04:21:57.339Z,2.57
2019-01-08T04:24:45.611Z,2.03
2019-01-08T04:27:34.073Z,1.83
2019-01-08T04:30:22.437Z,1.80
2019-01-08T04:33:10.829Z,2.40
2019-01-08T04:35:58.945Z,2.00
2019-01-08T04:38:47.412Z,1.60
2019-01-08T04:41:35.887Z,2.00
2019-01-08T04:44:24.089Z,2.27
2019-01-08T04:47:12.350Z,2.00
2019-01-08T04:50:00.440Z,1.90
2019-01-08T04:52:49.010Z,2.57
2019-01-08T04:55:37.169Z,2.40
2019-01-08T04:58:25.753Z,2.00
2019-01-08T05:01:13.960Z,1.70
2019-01-08T05:04:02.377Z,2.90
2019-01-08T05:06:50.630Z,1.83
2019-01-08T05:09:38.964Z,2.70
2019-01-08T05:12:27.125Z,2.70
2019-01-08T05:15:15.313Z,2.30
2019-01-08T05:18:03.702Z,1.87
2019-01-08T05:20:51.905Z,1.80
2019-01-08T05:23:40.126Z,2.10
2019-01-08T05:26:28.674Z,2.27
2019-01-08T05:29:16.798Z,2.13
2019-01-08T05:32:05.270Z,2.07
2019-01-08T05:34:53.948Z,1.93
2019-01-08T05:37:42.278Z,1.93
2019-01-08T05:40:30.336Z,1.80
2019-01-08T05:43:19.112Z,1.73
2019-01-08T05:46:07.502Z,2.20
2019-01-08T05:48:56.650Z,1.90
2019-01-08T05:51:44.875Z,1.67
2019-01-08T05:54:33.391Z,2.10
2019-01-08T05:57:21.851Z,2.00
2019-01-08T06:00:16.324Z,1.30
2019-01-08T06:03:00.698Z,1.87
2019-01-08T06:05:48.765Z,1.80
2019-01-08T06:08:36.959Z,1.77
2019-01-08T06:11:25.239Z,1.80
2019-01-08T06:14:13.664Z,2.30
2019-01-08T06:17:01.896Z,1.97
2019-01-08T06:19:50.366Z,1.80
2019-01-08T06:22:38.520Z,1.67
2019-01-08T06:25:27.011Z,1.80
2019-01-08T06:28:15.588Z,1.80
2019-01-08T06:31:03.976Z,3.50
2019-01-08T06:33:52.706Z,2.97
2019-01-08T06:36:40.993Z,3.07
2019-01-08T06:39:10.929Z,3.43
2019-01-08T06:41:40.575Z,4.43
2019-01-08T06:44:10.842Z,3.00
2019-01-08T06:46:43.094Z,4.67
2019-01-08T06:49:11.837Z,4.00
2019-01-08T06:52:00.007Z,3.27
2019-01-08T06:54:48.721Z,4.37
2019-01-08T06:57:37.106Z,5.07
2019-01-08T07:00:33.018Z,4.70
2019-01-08T07:03:15.467Z,3.90
2019-01-08T07:06:03.957Z,5.63
2019-01-08T07:08:52.205Z,6.27
2019-01-08T07:11:40.377Z,5.93
2019-01-08T07:14:28.712Z,7.47
2019-01-08T07:17:17.339Z,6.90
2019-01-08T07:20:07.231Z,7.40
2019-01-08T07:22:55.779Z,6.93
2019-01-08T07:25:44.128Z,6.27
2019-01-08T07:28:32.232Z,6.83
2019-01-08T07:31:20.309Z,7.00
2019-01-08T07:34:08.896Z,5.67
2019-01-08T07:36:57.670Z,5.60
2019-01-08T07:39:45.815Z,6.27
2019-01-08T07:42:33.878Z,5.07
2019-01-08T07:45:06.438Z,5.70
2019-01-08T07:47:54.624Z,5.27
2019-01-08T07:50:43.510Z,4.80
2019-01-08T07:53:31.758Z,3.30
2019-01-08T07:56:19.923Z,3.70
2019-01-08T07:59:08.491Z,3.53
2019-01-08T08:01:56.578Z,3.20
2019-01-08T08:04:47.742Z,3.17
2019-01-08T08:07:35.854Z,3.80
2019-01-08T08:10:24.111Z,2.77
2019-01-08T08:13:12.816Z,3.40
2019-01-08T08:16:00.771Z,3.20
2019-01-08T08:18:49.007Z,2.80
2019-01-08T08:21:37.129Z,2.90
2019-01-08T08:24:25.682Z,2.93
2019-01-08T08:27:14.126Z,3.00
2019-01-08T08:30:02.312Z,3.00
2019-01-08T08:32:51.131Z,2.20
2019-01-08T08:35:39.608Z,2.10
2019-01-08T08:38:27.900Z,2.37
2019-01-08T08:41:16.199Z,2.23
2019-01-08T08:44:04.794Z,2.73
2019-01-08T08:46:52.972Z,2.03
2019-01-08T08:49:41.300Z,1.60
2019-01-08T08:52:29.332Z,1.70
2019-01-08T08:55:17.424Z,1.93
2019-01-08T08:58:05.568Z,1.40
2019-01-08T09:00:53.726Z,1.73
2019-01-08T09:03:42.462Z,2.00
2019-01-08T09:06:30.589Z,1.90
2019-01-08T09:09:18.775Z,2.10
2019-01-08T09:12:07.237Z,1.90
2019-01-08T09:14:55.906Z,1.90
2019-01-08T09:17:44.250Z,2.00
2019-01-08T09:20:32.696Z,2.10
2019-01-08T09:23:21.139Z,1.63
2019-01-08T09:26:09.533Z,1.70
2019-01-08T09:28:57.901Z,2.70
2019-01-08T09:31:46.143Z,4.07
2019-01-08T09:34:34.739Z,3.40
2019-01-08T09:37:22.783Z,3.10
2019-01-08T09:40:11.182Z,3.70
2019-01-08T09:42:59.309Z,3.97
2019-01-08T09:45:47.886Z,3.40
2019-01-08T09:48:36.314Z,2.33
2019-01-08T09:51:24.709Z,2.30
2019-01-08T09:54:12.739Z,2.50
2019-01-08T09:57:01.119Z,2.80
2019-01-08T09:59:49.296Z,2.47
2019-01-08T10:02:37.750Z,2.40
2019-01-08T10:05:26.148Z,2.87
2019-01-08T10:08:14.181Z,2.13
2019-01-08T10:11:02.370Z,2.47
2019-01-08T10:13:50.789Z,2.43
2019-01-08T10:16:39.163Z,1.73
2019-01-08T10:19:27.521Z,1.87
2019-01-08T10:22:15.555Z,1.90
2019-01-08T10:25:04.684Z,2.40
2019-01-08T10:27:53.085Z,1.73
2019-01-08T10:30:41.425Z,2.00
2019-01-08T10:33:29.541Z,2.03
2019-01-08T10:36:18.112Z,2.37
2019-01-08T10:39:07.445Z,1.90
2019-01-08T10:41:55.732Z,1.67
2019-01-08T10:44:44.255Z,1.60
2019-01-08T10:47:32.749Z,1.70
2019-01-08T10:50:23.037Z,2.03
2019-01-08T10:53:11.257Z,1.80
2019-01-08T10:56:00.044Z,1.83
2019-01-08T10:58:48.440Z,1.47
2019-01-08T11:01:40.628Z,1.80
2019-01-08T11:04:26.728Z,1.83
2019-01-08T11:07:15.111Z,1.80
2019-01-08T11:10:04.700Z,1.33
2019-01-08T11:12:53.291Z,1.47
2019-01-08T11:15:41.376Z,1.63
2019-01-08T11:18:29.656Z,1.70
2019-01-08T11:21:18.687Z,1.93
2019-01-08T11:24:06.643Z,1.70
2019-01-08T11:26:54.770Z,2.00
2019-01-08T11:29:42.919Z,2.00
2019-01-08T11:32:31.378Z,2.53
2019-01-08T11:35:19.757Z,2.73
2019-01-08T11:38:08.028Z,3.67
2019-01-08T11:40:56.951Z,2.60
2019-01-08T11:43:45.031Z,2.63
2019-01-08T11:46:33.302Z,2.77
2019-01-08T11:49:21.454Z,2.10
2019-01-08T11:52:09.783Z,3.93
2019-01-08T11:54:57.854Z,2.50
2019-01-08T11:57:46.102Z,2.50
2019-01-08T12:00:34.602Z,2.43
2019-01-08T12:03:23.102Z,2.33
2019-01-08T12:06:11.311Z,1.80
2019-01-08T12:08:59.861Z,2.30
2019-01-08T12:11:47.903Z,2.00
2019-01-08T12:14:36.297Z,2.10
2019-01-08T12:17:24.452Z,3.17
2019-01-08T12:20:13.382Z,2.73
2019-01-08T12:23:01.972Z,2.97
2019-01-08T12:25:50.393Z,4.00
2019-01-08T12:28:38.523Z,3.53
2019-01-08T12:31:26.849Z,3.53
2019-01-08T12:34:14.997Z,3.00
2019-01-08T12:37:03.931Z,2.50
2019-01-08T12:39:52.659Z,2.57
2019-01-08T12:42:41.074Z,2.30
2019-01-08T12:45:29.378Z,2.70
2019-01-08T12:48:17.877Z,3.33
2019-01-08T12:51:06.064Z,4.30
2019-01-08T12:53:35.831Z,4.00
2019-01-08T12:56:23.908Z,3.90
2019-01-08T12:59:12.418Z,4.50
2019-01-08T13:02:00.651Z,4.63
2019-01-08T13:04:49.184Z,4.80
2019-01-08T13:07:37.444Z,7.87
2019-01-08T13:10:25.712Z,7.27
2019-01-08T13:13:14.229Z,8.33
2019-01-08T13:16:02.658Z,7.50
2019-01-08T13:18:50.854Z,8.23
2019-01-08T13:21:39.119Z,8.50
2019-01-08T13:24:27.480Z,8.80
2019-01-08T13:27:17.800Z,10.53
2019-01-08T13:30:07.835Z,8.60
2019-01-08T13:32:56.329Z,8.20
2019-01-08T13:35:44.907Z,8.13
2019-01-08T13:38:33.038Z,7.67
2019-01-08T13:41:21.163Z,8.43
2019-01-08T13:44:09.406Z,7.27
2019-01-08T13:46:57.909Z,8.93
2019-01-08T13:49:46.624Z,8.47
2019-01-08T13:52:35.292Z,7.87
2019-01-08T13:55:23.701Z,7.80
2019-01-08T13:58:12.231Z,7.77
2019-01-08T14:01:00.576Z,7.63
2019-01-08T14:03:48.980Z,7.40
2019-01-08T14:06:37.236Z,8.20
2019-01-08T14:09:25.512Z,8.13
2019-01-08T14:12:13.732Z,6.27
2019-01-08T14:15:02.106Z,6.70
2019-01-08T14:17:50.376Z,5.87
2019-01-08T14:20:38.961Z,6.50
2019-01-08T14:23:27.160Z,7.33
2019-01-08T14:26:15.170Z,6.93
2019-01-08T14:29:03.253Z,5.97
2019-01-08T14:31:51.654Z,6.93
2019-01-08T14:34:40.227Z,6.90
2019-01-08T14:37:28.299Z,7.77
2019-01-08T14:40:16.674Z,8.43
2019-01-08T14:43:13.593Z,7.43
2019-01-08T14:45:55.227Z,6.50
2019-01-08T14:48:44.135Z,6.57
2019-01-08T14:51:32.282Z,7.10
2019-01-08T14:54:20.635Z,6.40
2019-01-08T14:57:09.004Z,5.83
2019-01-08T14:59:58.130Z,5.97
2019-01-08T15:02:49.660Z,7.30
2019-01-08T15:05:36.117Z,6.30
2019-01-08T15:08:24.588Z,6.77
2019-01-08T15:11:12.800Z,6.37
2019-01-08T15:14:01.193Z,7.00
2019-01-08T15:16:49.346Z,5.97
2019-01-08T15:19:37.788Z,6.60
2019-01-08T15:22:25.934Z,8.20
2019-01-08T15:25:14.204Z,7.23
2019-01-08T15:28:02.524Z,8.43
2019-01-08T15:30:50.714Z,7.87
2019-01-08T15:33:21.144Z,8.37
2019-01-08T15:36:09.506Z,7.40
2019-01-08T15:38:57.665Z,8.30
2019-01-08T15:41:45.725Z,7.67
2019-01-08T15:44:33.788Z,6.90
2019-01-08T15:47:22.455Z,7.57
2019-01-08T15:50:10.721Z,6.40
2019-01-08T15:52:58.806Z,6.40
2019-01-08T15:55:47.261Z,6.33
2019-01-08T15:58:35.713Z,6.77
2019-01-08T16:01:24.256Z,5.57
2019-01-08T16:04:12.258Z,6.50
2019-01-08T16:06:41.995Z,6.10
2019-01-08T16:09:30.539Z,4.37
2019-01-08T16:12:00.297Z,5.97
2019-01-08T16:14:48.770Z,5.90
2019-01-08T16:17:36.945Z,4.67
2019-01-08T16:20:25.423Z,4.97
2019-01-08T16:23:07.349Z,4.57
2019-01-08T16:25:55.809Z,4.70
2019-01-08T16:28:44.252Z,4.50
2019-01-08T16:31:25.815Z,4.00
2019-01-08T16:34:14.365Z,4.73
2019-01-08T16:37:02.457Z,6.03
2019-01-08T16:39:47.063Z,4.10
2019-01-08T16:42:35.097Z,3.33
2019-01-08T16:45:23.292Z,3.30
2019-01-08T16:47:53.401Z,3.77
2019-01-08T16:50:41.606Z,4.17
2019-01-08T16:53:30.039Z,4.23
2019-01-08T16:55:59.968Z,3.90
2019-01-08T16:58:35.642Z,3.53
2019-01-08T17:01:24.185Z,3.20
2019-01-08T17:03:54.320Z,4.40
2019-01-08T17:06:24.042Z,3.80
2019-01-08T17:08:53.782Z,3.70
2019-01-08T17:11:42.005Z,3.07
2019-01-08T17:14:29.960Z,3.50
2019-01-08T17:17:18.160Z,3.33
2019-01-08T17:20:07.991Z,3.43
2019-01-08T17:22:56.292Z,2.97
2019-01-08T17:25:47.896Z,3.23
2019-01-08T17:28:34.502Z,3.90
2019-01-08T17:31:22.672Z,3.20
2019-01-08T17:34:10.991Z,3.20
2019-01-08T17:36:59.482Z,2.43
2019-01-08T17:39:47.688Z,2.40
2019-01-08T17:42:35.691Z,2.73
2019-01-08T17:45:24.170Z,2.67
2019-01-08T17:48:12.474Z,2.77
2019-01-08T17:51:00.813Z,2.93
2019-01-08T17:53:49.600Z,2.87
2019-01-08T17:56:38.132Z,2.97
2019-01-08T17:59:26.648Z,2.30
2019-01-08T18:02:15.130Z,2.53
2019-01-08T18:05:03.366Z,3.00
2019-01-08T18:07:51.820Z,2.50
2019-01-08T18:10:40.430Z,2.73
2019-01-08T18:13:28.699Z,2.33
2019-01-08T18:16:17.115Z,2.27
2019-01-08T18:19:05.170Z,2.93
2019-01-08T18:21:53.679Z,2.30
2019-01-08T18:24:42.172Z,2.50
2019-01-08T18:27:11.864Z,3.23
2019-01-08T18:30:00.165Z,2.80
2019-01-08T18:32:30.291Z,2.93
2019-01-08T18:35:00.660Z,2.20
2019-01-08T18:37:49.067Z,1.93
2019-01-08T18:40:37.387Z,2.03
2019-01-08T18:43:25.557Z,2.07
2019-01-08T18:46:14.193Z,2.43
2019-01-08T18:49:02.379Z,2.70
2019-01-08T18:51:50.493Z,2.07
2019-01-08T18:54:38.635Z,2.00
2019-01-08T18:57:26.903Z,2.00
2019-01-08T18:59:56.756Z,2.00
2019-01-08T19:02:26.404Z,2.00
2019-01-08T19:05:15.008Z,2.20
2019-01-08T19:08:03.070Z,1.77
2019-01-08T19:10:33.228Z,1.63
2019-01-08T19:13:21.481Z,2.17
2019-01-08T19:16:09.785Z,1.90
2019-01-08T19:18:58.271Z,2.10
2019-01-08T19:21:46.547Z,2.47
2019-01-08T19:24:34.846Z,2.00
2019-01-08T19:27:23.291Z,1.57
2019-01-08T19:30:11.699Z,2.30
2019-01-08T19:32:59.865Z,1.73
2019-01-08T19:35:48.292Z,2.27
2019-01-08T19:38:18.298Z,1.63
2019-01-08T19:41:06.805Z,1.90
2019-01-08T19:43:55.377Z,1.57
2019-01-08T19:46:43.802Z,1.83
2019-01-08T19:49:20.101Z,2.13
2019-01-08T19:51:49.815Z,1.33
2019-01-08T19:54:38.403Z,1.70
2019-01-08T19:57:26.813Z,1.83
2019-01-08T20:00:09.338Z,1.67
2019-01-08T20:02:57.634Z,2.73
2019-01-08T20:05:45.981Z,1.30
2019-01-08T20:08:34.474Z,1.10
2019-01-08T20:11:23.341Z,1.10
2019-01-08T20:14:11.838Z,1.63
2019-01-08T20:17:00.329Z,1.67
2019-01-08T20:19:48.821Z,1.57
2019-01-08T20:22:18.874Z,1.50
2019-01-08T20:25:07.971Z,1.47
2019-01-08T20:27:56.535Z,1.60
2019-01-08T20:30:45.002Z,1.37
2019-01-08T20:33:33.409Z,1.43
2019-01-08T20:36:21.641Z,1.43
2019-01-08T20:39:12.099Z,1.10
2019-01-08T20:42:00.444Z,1.87
2019-01-08T20:44:30.440Z,1.53
2019-01-08T20:47:19.069Z,1.30
2019-01-08T20:50:07.529Z,1.10
2019-01-08T20:52:55.543Z,1.20
2019-01-08T20:55:43.676Z,1.50
2019-01-08T20:58:31.847Z,1.33
2019-01-08T21:01:20.333Z,1.37
2019-01-08T21:04:08.873Z,1.47
2019-01-08T21:06:56.860Z,1.90
2019-01-08T21:09:44.943Z,1.60
2019-01-08T21:12:33.441Z,1.60
2019-01-08T21:15:06.234Z,1.60
2019-01-08T21:17:54.719Z,1.70
2019-01-08T21:20:43.288Z,1.60
2019-01-08T21:23:31.659Z,1.80
2019-01-08T21:26:19.801Z,2.00
2019-01-08T21:29:01.346Z,1.63
2019-01-08T21:31:49.840Z,1.80
2019-01-08T21:34:44.228Z,1.60
2019-01-08T21:37:28.271Z,1.47
2019-01-08T21:40:16.447Z,1.57
2019-01-08T21:43:04.624Z,1.50
2019-01-08T21:45:53.070Z,1.47
2019-01-08T21:48:41.458Z,2.03
2019-01-08T21:51:29.642Z,1.60
2019-01-08T21:54:17.828Z,1.80
2019-01-08T21:57:06.061Z,2.50
2019-01-08T21:59:54.344Z,1.30
2019-01-08T22:02:42.481Z,1.80
2019-01-08T22:05:30.842Z,1.50
2019-01-08T22:08:19.383Z,1.33
2019-01-08T22:11:08.745Z,1.97
2019-01-08T22:13:57.185Z,1.67
2019-01-08T22:16:46.391Z,1.33
2019-01-08T22:19:34.846Z,1.27
2019-01-08T22:22:07.574Z,1.50
2019-01-08T22:24:55.617Z,1.43
2019-01-08T22:27:28.215Z,1.40
2019-01-08T22:30:16.440Z,1.70
2019-01-08T22:33:04.864Z,1.77
2019-01-08T22:35:53.016Z,1.50
2019-01-08T22:38:41.455Z,1.43
2019-01-08T22:41:29.946Z,1.43
2019-01-08T22:44:17.984Z,1.33
2019-01-08T22:47:06.290Z,1.83
2019-01-08T22:49:54.654Z,1.30
2019-01-08T22:52:42.750Z,1.50
2019-01-08T22:55:12.585Z,1.40
2019-01-08T22:58:01.978Z,1.57
2019-01-08T23:01:01.462Z,1.60
2019-01-08T23:03:31.113Z,1.50
2019-01-08T23:06:19.482Z,1.70
2019-01-08T23:09:08.742Z,1.73
2019-01-08T23:11:56.910Z,1.10
2019-01-08T23:14:38.450Z,2.07
2019-01-08T23:17:26.746Z,1.20
2019-01-08T23:20:15.054Z,1.37
2019-01-08T23:23:03.431Z,1.87
2019-01-08T23:25:51.590Z,1.87
2019-01-08T23:28:40.638Z,1.37
2019-01-08T23:31:29.046Z,1.23
2019-01-08T23:34:17.206Z,1.10
2019-01-08T23:37:05.512Z,1.13
2019-01-08T23:39:53.920Z,1.17
2019-01-08T23:42:42.167Z,1.20
2019-01-08T23:45:30.666Z,0.90
2019-01-08T23:48:19.088Z,1.07
2019-01-08T23:51:07.282Z,1.20
2019-01-08T23:53:58.016Z,1.27
2019-01-08T23:56:47.219Z,1.30
2019-01-08T23:59:35.378Z,0.90
